Time;durP1;ratioP1;P1;durP2;ratioP2;P2;SDS_P1;SDS_P2;PMS_P1;PMS_P2;Temp;Humidity;BMP_temperature;BMP_pressure;BME280_temperature;BME280_humidity;BME280_pressure;Samples;Min_cycle;Max_cycle;Signal;HPM_P1;HPM_P2
2020/12/05 00:01:12;;;;;;;10.03;6.53;;;5.10;1.00;;;;;;4819489;28;20226;-79
2020/12/05 00:03:34;;;;;;;9.90;6.43;;;6.30;99.90;;;;;;4823229;28;20718;-83
2020/12/05 00:05:57;;;;;;;8.30;5.67;;;5.60;99.90;;;;;;4811107;28;20207;-80
2020/12/05 00:08:19;;;;;;;10.23;6.60;;;5.60;1.00;;;;;;4837148;28;20236;-79
2020/12/05 00:10:42;;;;;;;11.03;6.63;;;;;;;;;;4823604;28;20211;-79
2020/12/05 00:13:04;;;;;;;10.53;6.73;;;5.90;99.90;;;;;;4811284;28;20747;-80
2020/12/05 00:15:28;;;;;;;12.10;7.60;;;5.00;1.00;;;;;;4827618;28;20191;-81
2020/12/05 00:17:50;;;;;;;13.63;8.10;;;;;;;;;;4816024;28;20207;-77
2020/12/05 00:20:13;;;;;;;12.63;7.67;;;;;;;;;;4832671;28;20207;-78
2020/12/05 00:22:36;;;;;;;11.77;7.93;;;5.50;99.90;;;;;;4808996;28;20223;-80
2020/12/05 00:24:58;;;;;;;14.80;8.83;;;;;;;;;;4832739;28;20268;-79
2020/12/05 00:27:24;;;;;;;12.87;8.13;;;;;;;;;;4828804;28;20191;-80
2020/12/05 00:29:47;;;;;;;13.53;8.13;;;5.40;1.00;;;;;;4822569;28;20196;-80
2020/12/05 00:32:09;;;;;;;11.50;7.57;;;5.60;1.00;;;;;;4825395;28;20285;-83
2020/12/05 00:34:32;;;;;;;11.40;7.07;;;5.40;1.00;;;;;;4829289;28;20253;-79
2020/12/05 00:36:54;;;;;;;15.37;8.33;;;5.30;1.00;;;;;;4832719;28;20249;-81
2020/12/05 00:39:17;;;;;;;11.37;7.47;;;5.20;99.90;;;;;;4817947;28;20207;-79
2020/12/05 00:41:39;;;;;;;14.00;8.50;;;5.20;1.00;;;;;;4825673;28;20684;-81
2020/12/05 00:44:02;;;;;;;13.37;8.23;;;;;;;;;;4800502;28;20199;-80
2020/12/05 00:46:24;;;;;;;14.80;8.53;;;;;;;;;;4832251;28;20187;-83
2020/12/05 00:48:47;;;;;;;13.10;8.10;;;;;;;;;;4835484;28;20608;-79
2020/12/05 00:51:12;;;;;;;7.53;5.93;;;5.00;1.00;;;;;;4833455;28;20237;-82
2020/12/05 00:53:37;;;;;;;10.43;6.50;;;5.00;1.00;;;;;;4816385;28;20195;-80
2020/12/05 00:56:01;;;;;;;12.33;7.30;;;5.10;97.60;;;;;;4824979;28;20238;-81
2020/12/05 00:58:23;;;;;;;8.10;5.23;;;5.20;99.90;;;;;;4831364;28;20660;-80
2020/12/05 01:00:47;;;;;;;21.90;9.47;;;5.10;1.00;;;;;;4826138;28;20638;-80
2020/12/05 01:03:09;;;;;;;7.17;5.00;;;5.40;1.00;;;;;;4830731;28;20249;-81
2020/12/05 01:05:32;;;;;;;8.03;5.13;;;5.30;1.00;;;;;;4830099;28;20207;-77
2020/12/05 01:07:55;;;;;;;9.37;6.67;;;;;;;;;;4826567;28;20195;-77
2020/12/05 01:10:17;;;;;;;6.07;5.03;;;5.50;99.90;;;;;;4826433;28;20252;-79
2020/12/05 01:12:40;;;;;;;9.53;5.73;;;5.70;99.90;;;;;;4826039;28;20188;-80
2020/12/05 01:15:06;;;;;;;8.47;5.20;;;5.70;1.00;;;;;;4829611;28;20231;-80
2020/12/05 01:17:28;;;;;;;8.37;4.80;;;5.90;99.90;;;;;;4819450;28;20211;-84
2020/12/05 01:19:52;;;;;;;12.50;7.03;;;6.10;14.30;;;;;;4827270;28;20230;-85
2020/12/05 01:22:14;;;;;;;11.00;6.67;;;6.10;1.00;;;;;;4828736;28;20223;-83
2020/12/05 01:24:38;;;;;;;8.00;5.70;;;5.40;99.90;;;;;;4832116;28;20203;-82
2020/12/05 01:27:00;;;;;;;7.40;4.47;;;;;;;;;;4824616;28;20183;-80
2020/12/05 01:29:23;;;;;;;6.97;5.17;;;6.20;99.90;;;;;;4837858;28;20680;-81
2020/12/05 01:31:48;;;;;;;8.13;5.40;;;6.40;99.90;;;;;;4828454;28;20202;-81
2020/12/05 01:34:10;;;;;;;9.20;5.83;;;;;;;;;;4829509;28;20206;-80
2020/12/05 01:36:32;;;;;;;9.23;5.67;;;6.50;67.70;;;;;;4829805;28;20245;-83
2020/12/05 01:38:54;;;;;;;8.83;5.73;;;6.70;1.00;;;;;;4822283;28;20184;-79
2020/12/05 01:41:17;;;;;;;5.97;4.73;;;7.00;1.00;;;;;;4823492;28;20235;-78
2020/12/05 01:43:40;;;;;;;9.50;5.43;;;6.60;51.60;;;;;;4827131;28;20666;-80
2020/12/05 01:46:06;;;;;;;7.30;4.67;;;6.40;99.90;;;;;;4831461;28;20638;-84
2020/12/05 01:48:28;;;;;;;7.23;4.50;;;;;;;;;;4836297;28;20242;-81
2020/12/05 01:50:54;;;;;;;8.13;4.93;;;6.60;99.20;;;;;;4831801;28;20605;-84
2020/12/05 01:53:17;;;;;;;6.77;5.03;;;;;;;;;;4822977;28;20222;-78
2020/12/05 01:55:42;;;;;;;9.00;5.07;;;7.20;1.00;;;;;;4828848;28;20208;-84
2020/12/05 01:58:06;;;;;;;5.90;3.97;;;6.40;1.00;;;;;;4828862;28;20203;-85
2020/12/05 02:00:28;;;;;;;13.43;6.17;;;;;;;;;;4826667;28;20222;-77
2020/12/05 02:02:52;;;;;;;8.20;4.60;;;6.90;1.00;;;;;;4833948;28;20226;-87
2020/12/05 02:05:21;;;;;;;6.10;3.53;;;7.00;1.00;;;;;;4833394;28;20187;-81
2020/12/05 02:07:49;;;;;;;9.50;4.47;;;7.10;1.00;;;;;;4831476;28;20203;-78
2020/12/05 02:10:18;;;;;;;6.13;3.80;;;7.20;1.00;;;;;;4816074;28;20266;-80
2020/12/05 02:12:49;;;;;;;7.67;3.97;;;7.50;8.50;;;;;;4819620;28;20242;-79
2020/12/05 02:15:16;;;;;;;5.13;3.33;;;7.40;1.00;;;;;;4832014;28;20730;-80
2020/12/05 02:17:44;;;;;;;5.03;3.43;;;7.20;5.00;;;;;;4809255;28;20195;-85
2020/12/05 02:20:09;;;;;;;4.77;3.13;;;7.20;1.00;;;;;;4838188;28;20214;-83
2020/12/05 02:22:38;;;;;;;5.10;3.20;;;7.50;1.00;;;;;;4812230;28;20219;-83
2020/12/05 02:25:01;;;;;;;4.80;3.47;;;7.60;1.00;;;;;;4832755;28;20198;-81
2020/12/05 02:27:24;;;;;;;5.43;3.20;;;6.50;1.00;;;;;;4810343;28;20242;-86
2020/12/05 02:29:47;;;;;;;6.33;3.87;;;7.80;99.90;;;;;;4834531;28;20203;-80
2020/12/05 02:32:09;;;;;;;4.77;3.17;;;;;;;;;;4830094;28;20192;-81
2020/12/05 02:34:32;;;;;;;3.63;3.00;;;8.20;1.00;;;;;;4828983;28;20269;-81
2020/12/05 02:36:56;;;;;;;7.07;3.70;;;8.00;1.00;;;;;;4842619;28;20204;-82
2020/12/05 02:39:20;;;;;;;4.53;2.97;;;8.00;99.90;;;;;;4821781;28;20207;-79
2020/12/05 02:41:43;;;;;;;7.77;3.90;;;8.10;99.90;;;;;;4831842;28;20269;-82
2020/12/05 02:44:06;;;;;;;4.80;3.17;;;8.10;1.00;;;;;;4814432;28;20195;-82
2020/12/05 02:46:28;;;;;;;3.73;2.73;;;;;;;;;;4843122;28;20188;-80
2020/12/05 02:48:50;;;;;;;6.17;3.90;;;8.10;1.00;;;;;;4807876;28;20649;-81
2020/12/05 02:51:12;;;;;;;5.20;3.17;;;8.60;99.90;;;;;;4830678;28;20628;-84
2020/12/05 02:53:34;;;;;;;5.10;3.47;;;8.60;99.90;;;;;;4834011;28;20199;-81
2020/12/05 02:55:57;;;;;;;5.23;3.23;;;8.30;99.90;;;;;;4834769;28;20190;-80
2020/12/05 02:58:20;;;;;;;5.60;3.63;;;9.00;1.00;;;;;;4836350;28;20207;-79
2020/12/05 03:00:42;;;;;;;25.00;9.20;;;8.90;99.90;;;;;;4814197;28;20267;-85
2020/12/05 03:03:04;;;;;;;4.00;3.23;;;8.40;77.60;;;;;;4837078;28;20253;-83
2020/12/05 03:05:26;;;;;;;5.83;3.57;;;8.80;99.90;;;;;;4834513;28;20191;-85
2020/12/05 03:07:49;;;;;;;6.30;3.60;;;;;;;;;;4824704;28;20622;-84
2020/12/05 03:10:11;;;;;;;5.23;3.00;;;8.90;1.00;;;;;;4826545;28;20191;-84
2020/12/05 03:12:33;;;;;;;3.57;2.67;;;8.30;99.40;;;;;;4828070;28;20923;-81
2020/12/05 03:14:58;;;;;;;5.30;3.17;;;8.60;1.00;;;;;;4820599;28;20195;-81
2020/12/05 03:17:20;;;;;;;4.60;3.10;;;8.70;42.40;;;;;;4819031;28;20195;-81
2020/12/05 03:19:43;;;;;;;5.83;3.13;;;9.10;26.70;;;;;;4828702;28;20230;-78
2020/12/05 03:22:07;;;;;;;2.97;2.43;;;8.30;23.20;;;;;;4830716;28;20716;-78
2020/12/05 03:24:30;;;;;;;5.10;3.03;;;8.90;1.00;;;;;;4819697;28;20673;-81
2020/12/05 03:26:52;;;;;;;7.57;3.63;;;8.60;15.20;;;;;;4809058;28;20200;-82
2020/12/05 03:29:14;;;;;;;3.87;2.93;;;;;;;;;;4806510;28;20227;-80
2020/12/05 03:31:47;;;;;;;3.97;2.93;;;8.70;3.60;;;;;;4834743;28;20194;-81
2020/12/05 03:34:09;;;;;;;4.37;3.00;;;8.50;1.00;;;;;;4804953;28;20216;-82
2020/12/05 03:36:31;;;;;;;4.57;2.97;;;8.60;3.50;;;;;;4830156;28;20222;-84
2020/12/05 03:38:53;;;;;;;7.47;3.60;;;8.50;3.20;;;;;;4833069;28;20501;-83
2020/12/05 03:41:16;;;;;;;3.20;2.53;;;;;;;;;;4823015;28;20223;-83
2020/12/05 03:43:38;;;;;;;5.60;3.27;;;;;;;;;;4818707;28;20242;-80
2020/12/05 03:46:00;;;;;;;5.50;3.30;;;8.60;1.00;;;;;;4828264;28;20195;-82
2020/12/05 03:48:23;;;;;;;5.17;3.60;;;8.50;1.00;;;;;;4830294;28;20188;-81
2020/12/05 03:50:45;;;;;;;6.60;3.67;;;8.20;1.00;;;;;;4823519;28;20596;-83
2020/12/05 03:53:08;;;;;;;4.20;3.07;;;8.10;1.00;;;;;;4808859;28;20196;-83
2020/12/05 03:55:30;;;;;;;13.17;3.40;;;8.40;1.00;;;;;;4833997;28;20656;-80
2020/12/05 03:57:53;;;;;;;4.77;3.67;;;7.80;99.90;;;;;;4829151;28;20190;-76
2020/12/05 04:00:15;;;;;;;4.30;3.27;;;8.30;1.00;;;;;;4838198;28;20701;-78
2020/12/05 04:02:37;;;;;;;5.27;3.47;;;;;;;;;;4801903;28;20708;-78
2020/12/05 04:05:00;;;;;;;5.23;3.40;;;8.40;99.90;;;;;;4803221;28;20202;-84
2020/12/05 04:07:24;;;;;;;5.03;3.60;;;7.90;1.00;;;;;;4847105;28;20232;-80
2020/12/05 04:09:46;;;;;;;6.30;3.67;;;;;;;;;;4829347;28;20237;-81
2020/12/05 04:12:10;;;;;;;4.63;3.17;;;8.00;47.60;;;;;;4801739;28;20635;-82
2020/12/05 04:14:32;;;;;;;4.73;2.97;;;8.30;81.70;;;;;;4831567;28;20189;-82
2020/12/05 04:16:54;;;;;;;7.27;3.87;;;8.70;99.90;;;;;;4823085;28;20241;-78
2020/12/05 04:19:16;;;;;;;5.20;3.13;;;8.40;99.90;;;;;;4842654;28;20226;-80
2020/12/05 04:21:39;;;;;;;4.47;3.23;;;8.30;1.00;;;;;;4819571;28;20562;-80
2020/12/05 04:24:02;;;;;;;5.13;3.20;;;;;;;;;;4820223;28;20261;-82
2020/12/05 04:26:28;;;;;;;5.73;3.47;;;9.00;99.90;;;;;;4826196;28;20266;-80
2020/12/05 04:28:51;;;;;;;6.37;3.87;;;8.70;99.90;;;;;;4846073;28;20195;-80
2020/12/05 04:31:13;;;;;;;7.00;4.10;;;;;;;;;;4829066;28;20253;-80
2020/12/05 04:33:35;;;;;;;5.23;3.17;;;8.70;99.90;;;;;;4834973;28;20191;-81
2020/12/05 04:35:58;;;;;;;3.70;3.33;;;;;;;;;;4817547;28;20767;-77
2020/12/05 04:38:21;;;;;;;6.27;3.73;;;8.20;1.00;;;;;;4824399;28;20238;-82
2020/12/05 04:40:44;;;;;;;7.80;4.37;;;8.30;61.80;;;;;;4811589;28;20200;-84
2020/12/05 04:43:07;;;;;;;6.13;3.93;;;8.20;58.20;;;;;;4827131;28;20265;-82
2020/12/05 04:45:32;;;;;;;4.00;3.27;;;8.50;66.60;;;;;;4831290;28;20237;-80
2020/12/05 04:47:55;;;;;;;5.73;3.83;;;7.90;1.00;;;;;;4834092;28;20560;-79
2020/12/05 04:50:18;;;;;;;5.50;3.90;;;7.80;1.00;;;;;;4827759;28;20191;-78
2020/12/05 04:52:51;;;;;;;5.93;3.63;;;8.40;99.90;;;;;;4824591;28;20682;-81
2020/12/05 04:55:15;;;;;;;4.67;3.33;;;7.80;1.00;;;;;;4836145;28;20190;-84
2020/12/05 04:57:40;;;;;;;4.13;3.43;;;7.40;1.00;;;;;;4829881;28;20258;-80
2020/12/05 05:00:02;;;;;;;4.07;3.03;;;;;;;;;;4837166;28;20596;-79
2020/12/05 05:02:27;;;;;;;4.37;3.27;;;7.70;1.00;;;;;;4820377;28;20222;-82
2020/12/05 05:04:49;;;;;;;5.83;3.87;;;7.10;1.00;;;;;;4815874;28;20191;-80
2020/12/05 05:07:12;;;;;;;7.87;3.70;;;8.20;1.00;;;;;;4835113;28;20260;-79
2020/12/05 05:09:34;;;;;;;4.40;3.13;;;;;;;;;;4831058;28;20238;-82
2020/12/05 05:11:58;;;;;;;5.23;3.63;;;8.30;15.90;;;;;;4823522;28;20632;-79
2020/12/05 05:14:20;;;;;;;4.97;3.13;;;7.80;1.00;;;;;;4822545;28;20188;-80
2020/12/05 05:16:42;;;;;;;6.40;4.07;;;7.90;1.00;;;;;;4820470;28;20207;-80
2020/12/05 05:19:20;;;;;;;5.53;3.87;;;7.90;1.00;;;;;;4820508;28;20215;-80
2020/12/05 05:21:43;;;;;;;5.33;3.67;;;8.00;99.90;;;;;;4839601;28;20279;-82
2020/12/05 05:24:13;;;;;;;5.60;3.57;;;7.90;99.90;;;;;;4823531;28;20195;-82
2020/12/05 05:26:35;;;;;;;4.63;3.70;;;;;;;;;;4823707;28;20269;-83
2020/12/05 05:28:58;;;;;;;5.67;3.87;;;7.70;1.00;;;;;;4855520;28;20251;-77
2020/12/05 05:31:25;;;;;;;6.13;4.13;;;7.60;99.90;;;;;;4839692;28;20245;-82
2020/12/05 05:33:50;;;;;;;8.30;4.53;;;7.80;99.90;;;;;;4839261;28;20195;-83
2020/12/05 05:36:21;;;;;;;12.70;8.70;;;7.70;99.90;;;;;;4839638;28;20191;-81
2020/12/05 05:38:44;;;;;;;16.50;8.47;;;7.60;3.30;;;;;;4822200;28;20665;-82
2020/12/05 05:41:14;;;;;;;17.90;9.70;;;7.30;99.90;;;;;;4804005;28;20537;-80
2020/12/05 05:43:37;;;;;;;14.50;8.30;;;;;;;;;;4820691;28;20192;-81
2020/12/05 05:46:01;;;;;;;22.43;11.70;;;7.40;1.00;;;;;;4821960;28;20645;-82
2020/12/05 05:48:24;;;;;;;15.83;9.07;;;7.40;1.00;;;;;;4822974;28;20257;-81
2020/12/05 05:50:46;;;;;;;16.50;8.90;;;;;;;;;;4816313;28;20234;-81
2020/12/05 05:53:21;;;;;;;15.63;9.20;;;6.70;1.00;;;;;;4839551;28;20626;-80
2020/12/05 05:55:46;;;;;;;38.73;26.33;;;7.30;99.90;;;;;;4840808;28;20217;-81
2020/12/05 05:58:09;;;;;;;40.10;28.27;;;7.20;1.00;;;;;;4838815;28;20664;-79
2020/12/05 06:00:36;;;;;;;55.87;33.20;;;7.30;99.90;;;;;;4837872;28;20190;-83
2020/12/05 06:03:13;;;;;;;8.60;6.00;;;7.20;99.90;;;;;;4819096;28;20238;-77
2020/12/05 06:05:41;;;;;;;8.83;7.10;;;7.20;1.00;;;;;;4836832;28;20528;-81
2020/12/05 06:08:04;;;;;;;15.63;9.03;;;7.10;99.90;;;;;;4819775;28;20261;-80
2020/12/05 06:10:26;;;;;;;15.87;9.80;;;7.30;1.00;;;;;;4837449;28;20186;-79
2020/12/05 06:12:52;;;;;;;15.23;9.20;;;6.90;78.80;;;;;;4819406;28;20669;-78
2020/12/05 06:15:14;;;;;;;9.87;6.13;;;;;;;;;;4821465;28;20195;-79
2020/12/05 06:17:36;;;;;;;19.90;11.10;;;7.20;1.00;;;;;;4820027;28;20238;-80
2020/12/05 06:19:59;;;;;;;15.53;8.60;;;6.80;99.90;;;;;;4808095;28;20242;-76
2020/12/05 06:22:26;;;;;;;8.90;6.73;;;6.80;1.00;;;;;;4822143;28;20281;-79
2020/12/05 06:24:55;;;;;;;8.00;6.10;;;7.20;1.00;;;;;;4838939;28;20648;-81
2020/12/05 06:27:21;;;;;;;4.63;4.13;;;6.90;1.00;;;;;;4838505;28;20251;-79
2020/12/05 06:29:43;;;;;;;7.53;3.90;;;6.90;1.00;;;;;;4831212;28;20691;-80
2020/12/05 06:32:06;;;;;;;4.67;3.10;;;;;;;;;;4820495;28;20719;-79
2020/12/05 06:34:37;;;;;;;4.50;3.23;;;7.50;1.00;;;;;;4820023;28;20187;-78
2020/12/05 06:37:00;;;;;;;4.63;2.93;;;7.40;1.00;;;;;;4819544;28;20200;-80
2020/12/05 06:39:23;;;;;;;4.07;3.13;;;;;;;;;;4804478;28;20613;-81
2020/12/05 06:41:48;;;;;;;6.17;3.47;;;7.90;99.90;;;;;;4835538;28;20341;-80
2020/12/05 06:44:13;;;;;;;4.00;2.80;;;8.20;99.90;;;;;;4835597;28;20261;-79
2020/12/05 06:46:56;;;;;;;4.53;3.10;;;8.20;1.00;;;;;;4835445;28;20253;-83
2020/12/05 06:50:02;;;;;;;3.23;2.53;;;8.50;1.00;;;;;;4835980;28;20257;-79
2020/12/05 06:52:36;;;;;;;5.20;2.97;;;8.80;1.00;;;;;;4820903;28;20183;-81
2020/12/05 06:54:59;;;;;;;3.00;2.37;;;8.80;99.90;;;;;;4827958;28;20187;-77
2020/12/05 06:57:23;;;;;;;3.30;2.63;;;9.10;1.00;;;;;;4821366;28;20208;-80
2020/12/05 06:59:46;;;;;;;4.87;3.07;;;8.80;99.90;;;;;;4820942;28;20195;-79
2020/12/05 07:02:29;;;;;;;4.47;3.10;;;9.10;1.00;;;;;;4821678;28;20450;-78
2020/12/05 07:04:51;;;;;;;5.77;3.30;;;;;;;;;;4819241;28;20278;-81
2020/12/05 07:07:32;;;;;;;3.43;2.60;;;9.20;1.00;;;;;;4830868;28;20249;-82
2020/12/05 07:09:54;;;;;;;4.80;3.30;;;9.20;33.50;;;;;;4821035;28;20602;-80
2020/12/05 07:12:19;;;;;;;3.83;2.73;;;9.40;99.90;;;;;;4837294;28;20265;-80
2020/12/05 07:14:43;;;;;;;5.63;3.13;;;9.40;1.00;;;;;;4818734;28;20624;-79
2020/12/05 07:17:21;;;;;;;2.63;2.37;;;9.80;1.00;;;;;;4818612;28;20234;-78
2020/12/05 07:19:43;;;;;;;4.70;2.80;;;9.90;1.00;;;;;;4818492;28;20218;-79
2020/12/05 07:22:05;;;;;;;2.87;2.03;;;;;;;;;;4818214;28;20684;-79
2020/12/05 07:24:28;;;;;;;2.90;2.10;;;9.50;1.00;;;;;;4832434;28;20370;-79
2020/12/05 07:26:51;;;;;;;7.63;3.73;;;9.60;1.00;;;;;;4834096;28;20198;-78
2020/12/05 07:29:21;;;;;;;4.57;2.83;;;10.10;1.00;;;;;;4832515;28;20187;-78
2020/12/05 07:31:44;;;;;;;7.50;3.47;;;9.90;1.00;;;;;;4832106;28;20241;-80
2020/12/05 07:34:07;;;;;;;3.10;2.23;;;9.50;99.90;;;;;;4821299;28;20207;-79
2020/12/05 07:36:37;;;;;;;3.13;1.97;;;9.80;99.90;;;;;;4818514;28;20720;-80
2020/12/05 07:39:04;;;;;;;2.93;2.07;;;9.60;1.00;;;;;;4818382;28;20265;-78
2020/12/05 07:41:27;;;;;;;3.87;2.60;;;9.90;99.90;;;;;;4819740;28;20234;-79
2020/12/05 07:43:56;;;;;;;6.03;3.07;;;9.70;1.00;;;;;;4817822;28;20297;-79
2020/12/05 07:46:18;;;;;;;3.23;2.20;;;10.10;99.90;;;;;;4826590;28;20194;-78
2020/12/05 07:48:40;;;;;;;3.17;2.03;;;10.00;95.70;;;;;;4836701;28;20269;-78
2020/12/05 07:51:04;;;;;;;3.57;2.47;;;10.10;1.00;;;;;;4836666;28;20606;-80
2020/12/05 07:53:34;;;;;;;4.13;2.57;;;10.00;1.00;;;;;;4820436;28;20239;-81
2020/12/05 07:55:56;;;;;;;10.57;4.70;;;10.00;1.00;;;;;;4833833;28;20206;-78
2020/12/05 07:58:19;;;;;;;5.50;2.97;;;10.10;15.00;;;;;;4827968;28;20195;-78
2020/12/05 08:00:43;;;;;;;29.30;9.60;;;9.80;1.00;;;;;;4827267;28;20202;-77
2020/12/05 08:03:25;;;;;;;4.40;2.80;;;10.30;99.90;;;;;;4820889;28;20230;-79
2020/12/05 08:05:54;;;;;;;8.33;3.37;;;10.10;1.00;;;;;;4828351;28;20190;-80
2020/12/05 08:08:18;;;;;;;4.03;2.47;;;10.30;1.00;;;;;;4833659;28;20603;-80
2020/12/05 08:10:41;;;;;;;4.10;2.53;;;10.00;1.00;;;;;;4822978;28;20206;-77
2020/12/05 08:13:20;;;;;;;4.53;2.73;;;11.30;2.40;;;;;;4826309;28;20199;-78
2020/12/05 08:15:44;;;;;;;6.00;3.13;;;10.10;1.00;;;;;;4840616;28;20186;-78
2020/12/05 08:18:07;;;;;;;4.87;2.70;;;10.00;99.90;;;;;;4831484;28;20248;-77
2020/12/05 08:20:32;;;;;;;4.20;2.67;;;10.30;1.00;;;;;;4836977;28;20626;-79
2020/12/05 08:22:54;;;;;;;6.33;3.27;;;9.80;50.70;;;;;;4828662;28;20703;-80
2020/12/05 08:25:17;;;;;;;4.93;3.10;;;9.80;99.90;;;;;;4820473;28;20187;-79
2020/12/05 08:27:39;;;;;;;2.87;2.33;;;9.90;99.90;;;;;;4832321;28;20187;-79
2020/12/05 08:30:03;;;;;;;5.60;3.07;;;10.00;1.00;;;;;;4807352;28;20617;-78
2020/12/05 08:32:26;;;;;;;5.03;3.03;;;10.00;1.00;;;;;;4834374;28;20252;-78
2020/12/05 08:34:49;;;;;;;6.43;3.33;;;;;;;;;;4833427;28;20194;-78
2020/12/05 08:37:19;;;;;;;5.80;3.40;;;10.00;42.60;;;;;;4848813;28;20526;-78
2020/12/05 08:39:41;;;;;;;8.10;3.87;;;10.00;1.00;;;;;;4833378;28;20632;-79
2020/12/05 08:42:05;;;;;;;5.63;3.20;;;10.00;1.00;;;;;;4830944;28;20593;-79
2020/12/05 08:44:30;;;;;;;7.00;3.50;;;9.90;1.00;;;;;;4817213;28;20195;-79
2020/12/05 08:47:07;;;;;;;6.27;3.83;;;9.90;1.00;;;;;;4836107;28;20571;-78
2020/12/05 08:49:29;;;;;;;6.60;3.90;;;;;;;;;;4835670;28;20252;-80
2020/12/05 08:51:54;;;;;;;9.27;4.40;;;9.90;1.00;;;;;;4820270;28;20191;-79
2020/12/05 08:54:17;;;;;;;5.53;3.20;;;9.90;1.00;;;;;;4831097;28;20520;-79
2020/12/05 08:56:39;;;;;;;5.53;3.40;;;10.20;1.00;;;;;;4844437;28;20186;-78
2020/12/05 08:59:01;;;;;;;5.63;3.57;;;10.10;27.20;;;;;;4832011;28;20198;-78
2020/12/05 09:01:36;;;;;;;5.13;3.43;;;10.00;1.00;;;;;;4818745;28;20219;-80
2020/12/05 09:03:59;;;;;;;5.53;3.60;;;9.90;1.00;;;;;;4833034;28;20284;-79
2020/12/05 09:06:23;;;;;;;5.50;4.03;;;9.90;1.00;;;;;;4822736;28;20195;-77
2020/12/05 09:08:45;;;;;;;9.23;5.03;;;;;;;;;;4828253;28;20207;-82
2020/12/05 09:11:20;;;;;;;5.77;3.90;;;9.90;1.00;;;;;;4837532;28;20205;-77
2020/12/05 09:13:45;;;;;;;7.60;4.10;;;9.90;1.00;;;;;;4816377;28;20273;-79
2020/12/05 09:16:07;;;;;;;6.33;4.07;;;;;;;;;;4830216;28;20630;-78
2020/12/05 09:18:41;;;;;;;5.83;3.73;;;9.80;1.00;;;;;;4851763;28;20222;-78
2020/12/05 09:21:11;;;;;;;5.20;3.67;;;9.90;19.60;;;;;;4829329;28;20262;-79
2020/12/05 09:23:35;;;;;;;4.37;3.40;;;9.70;1.00;;;;;;4822590;28;20314;-76
2020/12/05 09:26:03;;;;;;;6.47;3.67;;;9.80;1.00;;;;;;4837070;28;20198;-83
2020/12/05 09:28:25;;;;;;;5.27;3.57;;;9.80;61.00;;;;;;4822869;28;20266;-81
2020/12/05 09:30:47;;;;;;;7.00;3.63;;;10.30;1.00;;;;;;4843878;28;20191;-80
2020/12/05 09:33:10;;;;;;;6.07;3.57;;;10.10;18.80;;;;;;4829192;28;20198;-83
2020/12/05 09:35:33;;;;;;;4.67;3.00;;;10.20;1.00;;;;;;4831746;28;20574;-81
2020/12/05 09:37:58;;;;;;;8.57;4.30;;;10.60;99.90;;;;;;4827724;28;20222;-81
2020/12/05 09:40:22;;;;;;;5.90;3.70;;;10.60;1.00;;;;;;4841380;28;20190;-84
2020/12/05 09:42:46;;;;;;;7.00;3.67;;;10.60;99.90;;;;;;4828000;28;20253;-83
2020/12/05 09:45:10;;;;;;;7.37;4.20;;;10.40;1.00;;;;;;4808545;28;20192;-76
2020/12/05 09:47:33;;;;;;;5.50;3.23;;;10.80;1.00;;;;;;4829686;28;20199;-79
2020/12/05 09:49:56;;;;;;;6.13;3.30;;;11.10;1.00;;;;;;4828556;28;20206;-86
2020/12/05 09:52:18;;;;;;;8.40;4.43;;;10.70;1.00;;;;;;4828805;28;20203;-81
2020/12/05 09:54:41;;;;;;;5.97;3.40;;;10.70;1.00;;;;;;4825401;28;20198;-82
2020/12/05 09:57:05;;;;;;;6.40;3.80;;;10.90;1.00;;;;;;4828312;28;20195;-85
2020/12/05 09:59:27;;;;;;;5.43;3.40;;;11.10;99.90;;;;;;4848125;28;20206;-82
2020/12/05 10:01:49;;;;;;;7.37;4.07;;;11.20;72.20;;;;;;4827430;28;20214;-83
2020/12/05 10:04:15;;;;;;;8.53;4.17;;;11.20;99.90;;;;;;4823787;28;20219;-84
2020/12/05 10:06:38;;;;;;;5.53;3.40;;;;;;;;;;4847121;28;20182;-82
2020/12/05 10:09:00;;;;;;;5.17;3.37;;;11.30;99.90;;;;;;4822537;28;20273;-82
2020/12/05 10:11:23;;;;;;;6.03;3.80;;;11.30;1.00;;;;;;4829073;28;20207;-85
2020/12/05 10:13:45;;;;;;;8.50;4.10;;;;;;;;;;4829306;28;20195;-81
2020/12/05 10:16:07;;;;;;;7.13;3.83;;;11.30;99.90;;;;;;4827718;28;20253;-80
2020/12/05 10:18:29;;;;;;;5.53;3.23;;;11.40;99.90;;;;;;4833022;28;20219;-79
2020/12/05 10:20:52;;;;;;;7.97;3.93;;;;;;;;;;4825536;28;20217;-79
2020/12/05 10:23:14;;;;;;;6.30;3.43;;;12.00;99.90;;;;;;4814619;28;20219;-82
2020/12/05 10:25:36;;;;;;;5.80;3.27;;;;;;;;;;4806873;28;20302;-81
2020/12/05 10:28:00;;;;;;;5.53;2.70;;;11.70;1.00;;;;;;4846095;28;20190;-85
2020/12/05 10:30:23;;;;;;;7.27;3.23;;;11.80;1.00;;;;;;4811875;28;20196;-80
2020/12/05 10:32:45;;;;;;;6.30;3.17;;;;;;;;;;4831808;28;20261;-81
2020/12/05 10:35:09;;;;;;;17.97;5.97;;;;;;;;;;4820406;28;20180;-81
2020/12/05 10:37:31;;;;;;;7.50;3.13;;;;;;;;;;4823642;28;20245;-83
2020/12/05 10:39:55;;;;;;;6.97;3.17;;;;;;;;;;4827519;28;20668;-80
2020/12/05 10:42:18;;;;;;;6.97;3.10;;;;;;;;;;4823776;28;20245;-81
2020/12/05 10:44:41;;;;;;;10.30;4.13;;;11.70;1.00;;;;;;4825998;28;20231;-80
2020/12/05 10:47:03;;;;;;;4.20;2.37;;;11.40;99.90;;;;;;4825586;28;20187;-81
2020/12/05 10:49:28;;;;;;;5.37;2.70;;;11.90;1.00;;;;;;4826920;28;20304;-82
2020/12/05 10:51:52;;;;;;;7.20;3.33;;;11.70;1.00;;;;;;4823216;28;20192;-82
2020/12/05 10:54:15;;;;;;;7.67;3.20;;;;;;;;;;4823488;28;20261;-81
2020/12/05 10:56:40;;;;;;;4.03;2.23;;;11.80;1.00;;;;;;4812855;28;20609;-80
2020/12/05 10:59:02;;;;;;;4.17;2.33;;;11.30;1.00;;;;;;4828036;28;20273;-80
2020/12/05 11:01:25;;;;;;;6.30;2.93;;;12.20;99.90;;;;;;4807529;28;20285;-82
2020/12/05 11:03:47;;;;;;;11.63;4.47;;;;;;;;;;4833640;28;20257;-83
2020/12/05 11:06:10;;;;;;;5.93;2.80;;;;;;;;;;4830368;28;20262;-82
2020/12/05 11:08:32;;;;;;;5.70;2.30;;;;;;;;;;4823973;28;20233;-80
2020/12/05 11:10:54;;;;;;;6.63;3.07;;;12.10;96.40;;;;;;4823255;28;20265;-80
2020/12/05 11:13:16;;;;;;;7.20;3.30;;;12.00;1.00;;;;;;4827164;28;20187;-80
2020/12/05 11:15:40;;;;;;;6.57;3.40;;;11.80;1.00;;;;;;4813173;28;20195;-79
2020/12/05 11:18:04;;;;;;;5.90;2.93;;;11.80;1.00;;;;;;4829978;28;20261;-81
2020/12/05 11:20:26;;;;;;;4.93;2.43;;;11.90;1.00;;;;;;4831260;28;20461;-82
2020/12/05 11:22:50;;;;;;;8.60;3.10;;;;;;;;;;4833015;28;20226;-83
2020/12/05 11:25:13;;;;;;;7.50;3.20;;;;;;;;;;4811494;28;20537;-83
2020/12/05 11:27:35;;;;;;;5.33;2.63;;;11.90;99.90;;;;;;4821726;28;20241;-79
2020/12/05 11:29:58;;;;;;;7.33;3.43;;;;;;;;;;4821682;28;20636;-81
2020/12/05 11:32:20;;;;;;;7.20;3.20;;;;;;;;;;4826978;28;20245;-79
2020/12/05 11:34:44;;;;;;;10.17;3.37;;;13.10;1.00;;;;;;4833822;28;20198;-80
2020/12/05 11:37:06;;;;;;;6.73;3.07;;;;;;;;;;4814780;28;20202;-81
2020/12/05 11:39:29;;;;;;;5.70;2.90;;;;;;;;;;4832589;28;20229;-79
2020/12/05 11:41:51;;;;;;;8.03;3.33;;;;;;;;;;4832578;28;20187;-80
2020/12/05 11:44:13;;;;;;;7.03;3.10;;;;;;;;;;4831869;28;20280;-80
2020/12/05 11:46:35;;;;;;;6.40;3.10;;;;;;;;;;4825802;28;20695;-79
2020/12/05 11:48:59;;;;;;;9.00;3.90;;;11.70;99.90;;;;;;4822078;28;20600;-80
2020/12/05 11:51:24;;;;;;;7.07;3.67;;;12.00;1.00;;;;;;4831470;28;20203;-81
2020/12/05 11:53:47;;;;;;;10.37;4.37;;;;;;;;;;4830917;28;20214;-80
2020/12/05 11:56:10;;;;;;;9.73;4.00;;;;;;;;;;4826747;28;20297;-79
2020/12/05 11:58:37;;;;;;;9.70;4.67;;;;;;;;;;4820716;28;20726;-81
2020/12/05 12:00:59;;;;;;;7.07;3.40;;;;;;;;;;4827637;28;20864;-83
2020/12/05 12:03:21;;;;;;;6.93;3.23;;;;;;;;;;4826505;28;20235;-80
2020/12/05 12:05:44;;;;;;;8.00;3.13;;;11.50;1.00;;;;;;4826497;28;20195;-80
2020/12/05 12:08:07;;;;;;;6.97;2.87;;;11.80;1.00;;;;;;4825185;28;20238;-81
2020/12/05 12:10:30;;;;;;;5.30;2.20;;;;;;;;;;4827062;28;20214;-81
2020/12/05 12:12:53;;;;;;;7.40;3.17;;;11.80;1.00;;;;;;4826046;28;20203;-79
2020/12/05 12:15:16;;;;;;;7.23;3.00;;;11.80;99.90;;;;;;4844887;28;20183;-83
2020/12/05 12:17:38;;;;;;;3.97;2.13;;;11.30;99.90;;;;;;4829988;28;20692;-82
2020/12/05 12:20:00;;;;;;;4.13;2.30;;;;;;;;;;4830412;28;20190;-79
2020/12/05 12:22:23;;;;;;;5.90;2.67;;;;;;;;;;4815735;28;20296;-82
2020/12/05 12:24:46;;;;;;;6.10;2.70;;;11.70;1.00;;;;;;4828875;28;20257;-80
2020/12/05 12:27:08;;;;;;;9.77;3.60;;;;;;;;;;4829936;28;20282;-80
2020/12/05 12:29:31;;;;;;;4.17;2.40;;;;;;;;;;4806441;28;20210;-81
2020/12/05 12:31:54;;;;;;;6.93;2.93;;;11.70;1.00;;;;;;4811029;28;20651;-80
2020/12/05 12:34:19;;;;;;;6.33;2.87;;;11.30;1.00;;;;;;4833529;28;20190;-80
2020/12/05 12:36:42;;;;;;;4.33;2.20;;;;;;;;;;4806170;28;20196;-79
2020/12/05 12:39:04;;;;;;;5.00;2.43;;;;;;;;;;4822156;28;20199;-79
2020/12/05 12:41:28;;;;;;;6.50;2.70;;;11.80;1.00;;;;;;4823618;28;20203;-78
2020/12/05 12:43:51;;;;;;;6.87;3.23;;;12.40;99.90;;;;;;4827756;28;20218;-79
2020/12/05 12:46:14;;;;;;;7.23;3.43;;;;;;;;;;4810727;28;20197;-82
2020/12/05 12:48:38;;;;;;;5.30;2.63;;;12.00;99.90;;;;;;4813986;28;20191;-80
2020/12/05 12:51:00;;;;;;;5.60;2.50;;;;;;;;;;4831467;28;20322;-80
2020/12/05 12:53:23;;;;;;;5.40;2.43;;;;;;;;;;4815190;28;20195;-80
2020/12/05 12:55:47;;;;;;;6.73;2.63;;;11.70;1.00;;;;;;4815468;28;20286;-85
2020/12/05 12:58:13;;;;;;;3.83;2.03;;;11.60;1.00;;;;;;4810993;28;20605;-81
2020/12/05 13:00:36;;;;;;;26.77;7.97;;;;;;;;;;4828483;28;20186;-82
2020/12/05 13:02:59;;;;;;;7.13;2.80;;;;;;;;;;4833309;28;20695;-79